Terminal Aerodrome Forecast
Issued by NWS Cleveland, OH

Home | Current Version | Previous Version | Graphics & Text | Print | Product List | Glossary On
Versions: 1 2 3 4 5 6 7 8 9 10 11 12 13 14 15 16 17 18 19 20 21 22 23 24 25 26 27 28
860
FTUS41 KCLE 201742
TAFCLE
TAF
KCLE 201742Z 2018/2124 09010KT P6SM SCT025 BKN035
      TEMPO 2018/2019 BKN025
     FM202100 09012G22KT P6SM VCSH SCT025 BKN035
     FM210200 11010KT P6SM BKN060
     FM210600 17010KT P6SM VCSH OVC060
     FM211000 18012KT 6SM -SHRA OVC025
     FM211500 18015G22KT 5SM -RA BR OVC025
     FM211900 18015G25KT P6SM VCTS BKN035CB=

USA.gov is the U.S. government's official web portal to all federal, state and local government web resources and services.